sensor_id;sensor_type;location;lat;lon;timestamp;pressure;altitude;pressure_sealevel;temperature;humidity
86320;BME280;76974;51.278;16.870;2024-03-29T03:03:09;99016.53;;;-0.34;92.87
86320;BME280;76974;51.278;16.870;2024-03-29T03:05:35;99019.63;;;-0.39;92.86
86320;BME280;76974;51.278;16.870;2024-03-29T03:08:02;99010.16;;;-0.24;94.25
86320;BME280;76974;51.278;16.870;2024-03-29T03:10:48;99013.78;;;-0.25;93.41
86320;BME280;76974;51.278;16.870;2024-03-29T03:13:27;99020.78;;;-0.06;93.73
86320;BME280;76974;51.278;16.870;2024-03-29T03:15:53;99006.66;;;-0.24;94.30
86320;BME280;76974;51.278;16.870;2024-03-29T03:18:19;99014.38;;;-0.49;93.33
86320;BME280;76974;51.278;16.870;2024-03-29T03:20:54;99021.97;;;-0.54;93.80
86320;BME280;76974;51.278;16.870;2024-03-29T03:23:21;99013.44;;;-0.57;93.20
86320;BME280;76974;51.278;16.870;2024-03-29T03:26:00;99026.50;;;-0.64;93.33
86320;BME280;76974;51.278;16.870;2024-03-29T03:28:28;99023.19;;;-0.76;93.34
86320;BME280;76974;51.278;16.870;2024-03-29T03:30:54;99019.19;;;-0.80;93.43
86320;BME280;76974;51.278;16.870;2024-03-29T03:33:20;99021.13;;;-0.82;93.45
86320;BME280;76974;51.278;16.870;2024-03-29T03:35:46;99017.66;;;-0.82;94.02
86320;BME280;76974;51.278;16.870;2024-03-29T03:38:13;99008.97;;;-0.84;94.03
86320;BME280;76974;51.278;16.870;2024-03-29T03:40:39;99009.41;;;-0.89;94.50
86320;BME280;76974;51.278;16.870;2024-03-29T03:43:06;99004.78;;;-0.87;93.79
86320;BME280;76974;51.278;16.870;2024-03-29T03:45:41;99012.41;;;-1.01;93.36
86320;BME280;76974;51.278;16.870;2024-03-29T03:48:08;99017.50;;;-1.08;93.78
86320;BME280;76974;51.278;16.870;2024-03-29T03:50:36;99025.47;;;-1.08;93.77
86320;BME280;76974;51.278;16.870;2024-03-29T03:53:01;99031.91;;;-1.11;93.92
86320;BME280;76974;51.278;16.870;2024-03-29T03:55:27;99038.13;;;-1.02;94.40
86320;BME280;76974;51.278;16.870;2024-03-29T03:57:53;99042.38;;;-1.09;94.47
86320;BME280;76974;51.278;16.870;2024-03-29T04:00:20;99051.13;;;-0.99;94.71
86320;BME280;76974;51.278;16.870;2024-03-29T04:02:52;99061.91;;;-1.00;94.11
86320;BME280;76974;51.278;16.870;2024-03-29T04:05:21;99058.91;;;-0.88;95.10
86320;BME280;76974;51.278;16.870;2024-03-29T04:07:46;99060.44;;;-1.22;94.01
86320;BME280;76974;51.278;16.870;2024-03-29T04:10:12;99063.63;;;-1.19;95.14
86320;BME280;76974;51.278;16.870;2024-03-29T04:12:38;99056.59;;;-1.00;95.66
86320;BME280;76974;51.278;16.870;2024-03-29T04:15:05;99054.97;;;-1.11;95.28
86320;BME280;76974;51.278;16.870;2024-03-29T04:17:31;99064.22;;;-1.34;94.73
86320;BME280;76974;51.278;16.870;2024-03-29T04:19:58;99062.53;;;-1.35;94.90
86320;BME280;76974;51.278;16.870;2024-03-29T04:22:24;99070.13;;;-1.40;95.37
86320;BME280;76974;51.278;16.870;2024-03-29T04:24:51;99073.16;;;-1.35;95.03
86320;BME280;76974;51.278;16.870;2024-03-29T04:27:16;99072.44;;;-1.18;95.58
86320;BME280;76974;51.278;16.870;2024-03-29T04:29:42;99069.28;;;-1.41;95.03
86320;BME280;76974;51.278;16.870;2024-03-29T04:32:08;99075.28;;;-1.39;95.05
86320;BME280;76974;51.278;16.870;2024-03-29T04:34:34;99084.34;;;-1.32;95.15
86320;BME280;76974;51.278;16.870;2024-03-29T04:37:00;99084.94;;;-1.38;95.06
86320;BME280;76974;51.278;16.870;2024-03-29T04:39:26;99090.22;;;-1.28;95.39
86320;BME280;76974;51.278;16.870;2024-03-29T04:41:52;99084.91;;;-1.28;95.36
86320;BME280;76974;51.278;16.870;2024-03-29T04:44:25;99085.94;;;-0.92;96.38
86320;BME280;76974;51.278;16.870;2024-03-29T04:46:52;99079.88;;;-0.85;96.28
86320;BME280;76974;51.278;16.870;2024-03-29T04:49:22;99080.78;;;-1.03;95.55
86320;BME280;76974;51.278;16.870;2024-03-29T04:52:00;99095.53;;;-1.28;95.55
86320;BME280;76974;51.278;16.870;2024-03-29T04:54:26;99105.31;;;-1.29;95.16
86320;BME280;76974;51.278;16.870;2024-03-29T04:56:53;99103.22;;;-1.25;95.28
86320;BME280;76974;51.278;16.870;2024-03-29T04:59:19;99094.38;;;-1.16;95.11
86320;BME280;76974;51.278;16.870;2024-03-29T05:01:47;99091.84;;;-1.18;95.85
86320;BME280;76974;51.278;16.870;2024-03-29T05:04:16;99093.78;;;-1.00;95.62
86320;BME280;76974;51.278;16.870;2024-03-29T05:06:44;99089.88;;;-0.69;95.28
86320;BME280;76974;51.278;16.870;2024-03-29T05:09:11;99101.66;;;-0.44;94.59
86320;BME280;76974;51.278;16.870;2024-03-29T05:11:39;99098.19;;;-0.27;93.85
86320;BME280;76974;51.278;16.870;2024-03-29T05:14:05;99103.41;;;-0.08;93.30
86320;BME280;76974;51.278;16.870;2024-03-29T05:16:31;99086.00;;;0.16;93.32
86320;BME280;76974;51.278;16.870;2024-03-29T05:18:57;99094.22;;;0.40;92.72
86320;BME280;76974;51.278;16.870;2024-03-29T05:21:23;99102.50;;;0.55;92.60
86320;BME280;76974;51.278;16.870;2024-03-29T05:23:49;99101.69;;;0.37;92.06
86320;BME280;76974;51.278;16.870;2024-03-29T05:26:15;99086.28;;;0.66;92.11
86320;BME280;76974;51.278;16.870;2024-03-29T05:28:41;99091.09;;;0.88;91.49
86320;BME280;76974;51.278;16.870;2024-03-29T05:31:14;99094.91;;;1.12;90.16
86320;BME280;76974;51.278;16.870;2024-03-29T05:33:43;99095.56;;;1.39;89.41
86320;BME280;76974;51.278;16.870;2024-03-29T05:36:10;99096.22;;;1.33;89.35
86320;BME280;76974;51.278;16.870;2024-03-29T05:38:39;99092.03;;;1.73;89.04
86320;BME280;76974;51.278;16.870;2024-03-29T05:41:05;99102.00;;;2.21;87.79
86320;BME280;76974;51.278;16.870;2024-03-29T05:43:31;99101.81;;;2.15;88.15
86320;BME280;76974;51.278;16.870;2024-03-29T05:45:57;99087.47;;;2.07;87.93
86320;BME280;76974;51.278;16.870;2024-03-29T05:48:23;99075.47;;;2.85;87.93
86320;BME280;76974;51.278;16.870;2024-03-29T05:50:49;99084.53;;;3.39;85.19
86320;BME280;76974;51.278;16.870;2024-03-29T05:53:15;99091.59;;;3.71;85.36
86320;BME280;76974;51.278;16.870;2024-03-29T05:55:40;99094.13;;;4.03;84.32
86320;BME280;76974;51.278;16.870;2024-03-29T05:58:06;99103.03;;;4.72;83.48
86320;BME280;76974;51.278;16.870;2024-03-29T06:00:32;99099.34;;;4.73;82.62
86320;BME280;76974;51.278;16.870;2024-03-29T06:03:03;99103.69;;;5.12;81.30
86320;BME280;76974;51.278;16.870;2024-03-29T06:05:29;99110.19;;;5.32;81.33
86320;BME280;76974;51.278;16.870;2024-03-29T06:07:56;99095.91;;;6.05;80.89
86320;BME280;76974;51.278;16.870;2024-03-29T06:10:23;99091.56;;;6.61;78.93
86320;BME280;76974;51.278;16.870;2024-03-29T06:12:48;99094.19;;;7.04;73.07
86320;BME280;76974;51.278;16.870;2024-03-29T06:15:14;99089.72;;;7.11;70.33
86320;BME280;76974;51.278;16.870;2024-03-29T06:18:00;99087.34;;;7.64;70.24
86320;BME280;76974;51.278;16.870;2024-03-29T06:20:26;99090.78;;;7.79;69.61
86320;BME280;76974;51.278;16.870;2024-03-29T06:22:51;99088.47;;;7.83;67.48
86320;BME280;76974;51.278;16.870;2024-03-29T06:25:17;99073.59;;;7.87;67.70
86320;BME280;76974;51.278;16.870;2024-03-29T06:27:43;99082.31;;;7.89;66.44
86320;BME280;76974;51.278;16.870;2024-03-29T06:30:13;99070.63;;;8.29;65.26
86320;BME280;76974;51.278;16.870;2024-03-29T06:32:41;99068.00;;;8.49;65.78
86320;BME280;76974;51.278;16.870;2024-03-29T06:35:07;99075.50;;;8.54;64.74
86320;BME280;76974;51.278;16.870;2024-03-29T06:37:33;99075.25;;;8.49;63.86
86320;BME280;76974;51.278;16.870;2024-03-29T06:39:58;99092.28;;;8.56;64.80
86320;BME280;76974;51.278;16.870;2024-03-29T06:42:24;99085.47;;;8.79;62.73
86320;BME280;76974;51.278;16.870;2024-03-29T06:44:50;99087.34;;;9.25;63.29
86320;BME280;76974;51.278;16.870;2024-03-29T06:47:17;99070.94;;;8.94;60.90
86320;BME280;76974;51.278;16.870;2024-03-29T06:49:43;99070.06;;;9.33;61.48
86320;BME280;76974;51.278;16.870;2024-03-29T06:52:09;99075.28;;;9.28;60.50
86320;BME280;76974;51.278;16.870;2024-03-29T06:54:35;99081.34;;;9.16;59.41
86320;BME280;76974;51.278;16.870;2024-03-29T06:57:01;99077.97;;;9.41;59.50
86320;BME280;76974;51.278;16.870;2024-03-29T06:59:28;99074.31;;;9.86;58.84
86320;BME280;76974;51.278;16.870;2024-03-29T07:01:54;99074.72;;;9.83;57.90
86320;BME280;76974;51.278;16.870;2024-03-29T07:04:21;99061.97;;;9.46;59.26
86320;BME280;76974;51.278;16.870;2024-03-29T07:06:47;99072.28;;;9.69;57.72
86320;BME280;76974;51.278;16.870;2024-03-29T07:09:16;99090.94;;;9.83;57.79
86320;BME280;76974;51.278;16.870;2024-03-29T07:11:42;99089.72;;;9.79;56.25
86320;BME280;76974;51.278;16.870;2024-03-29T07:14:08;99095.69;;;10.01;57.22
86320;BME280;76974;51.278;16.870;2024-03-29T07:16:33;99080.81;;;10.30;55.51
86320;BME280;76974;51.278;16.870;2024-03-29T07:18:59;99103.53;;;10.09;55.32
86320;BME280;76974;51.278;16.870;2024-03-29T07:21:25;99104.88;;;10.45;54.98
86320;BME280;76974;51.278;16.870;2024-03-29T07:23:50;99108.31;;;10.14;54.66
86320;BME280;76974;51.278;16.870;2024-03-29T07:26:16;99089.41;;;10.20;54.72
86320;BME280;76974;51.278;16.870;2024-03-29T07:28:42;99117.56;;;10.44;55.81
86320;BME280;76974;51.278;16.870;2024-03-29T07:31:08;99121.09;;;10.51;55.57
86320;BME280;76974;51.278;16.870;2024-03-29T07:33:34;99128.59;;;10.43;53.52
86320;BME280;76974;51.278;16.870;2024-03-29T07:36:00;99110.47;;;10.50;55.12
86320;BME280;76974;51.278;16.870;2024-03-29T07:38:26;99140.25;;;10.43;53.74
86320;BME280;76974;51.278;16.870;2024-03-29T07:40:52;99129.84;;;10.47;52.23
86320;BME280;76974;51.278;16.870;2024-03-29T07:43:18;99103.59;;;10.54;52.86
86320;BME280;76974;51.278;16.870;2024-03-29T07:45:44;99108.22;;;10.40;52.80
86320;BME280;76974;51.278;16.870;2024-03-29T07:48:17;99101.53;;;10.49;52.96
86320;BME280;76974;51.278;16.870;2024-03-29T07:50:44;99119.28;;;11.02;52.35
86320;BME280;76974;51.278;16.870;2024-03-29T07:53:10;99127.94;;;10.85;52.29
86320;BME280;76974;51.278;16.870;2024-03-29T07:55:38;99126.31;;;11.09;52.62
86320;BME280;76974;51.278;16.870;2024-03-29T07:58:04;99148.38;;;11.38;52.86
86320;BME280;76974;51.278;16.870;2024-03-29T08:00:32;99143.75;;;11.45;52.68
86320;BME280;76974;51.278;16.870;2024-03-29T08:03:01;99134.06;;;11.55;51.79
86320;BME280;76974;51.278;16.870;2024-03-29T08:05:28;99148.72;;;11.48;50.18
86320;BME280;76974;51.278;16.870;2024-03-29T08:07:54;99154.25;;;11.84;49.84
86320;BME280;76974;51.278;16.870;2024-03-29T08:10:20;99161.56;;;12.02;50.95
86320;BME280;76974;51.278;16.870;2024-03-29T08:12:46;99143.47;;;11.96;50.48
86320;BME280;76974;51.278;16.870;2024-03-29T08:15:11;99141.28;;;11.86;50.26
86320;BME280;76974;51.278;16.870;2024-03-29T08:17:37;99146.03;;;11.66;50.69
86320;BME280;76974;51.278;16.870;2024-03-29T08:20:04;99163.81;;;11.87;50.65
86320;BME280;76974;51.278;16.870;2024-03-29T08:22:30;99155.25;;;11.90;48.92
86320;BME280;76974;51.278;16.870;2024-03-29T08:24:59;99155.78;;;12.35;49.50
86320;BME280;76974;51.278;16.870;2024-03-29T08:27:26;99151.94;;;12.54;50.10
86320;BME280;76974;51.278;16.870;2024-03-29T08:29:51;99164.41;;;12.44;47.18
86320;BME280;76974;51.278;16.870;2024-03-29T08:32:17;99161.66;;;12.32;47.24
86320;BME280;76974;51.278;16.870;2024-03-29T08:34:43;99172.91;;;12.65;49.65
86320;BME280;76974;51.278;16.870;2024-03-29T08:37:09;99168.19;;;12.91;49.46
86320;BME280;76974;51.278;16.870;2024-03-29T08:39:34;99170.25;;;12.77;47.95
86320;BME280;76974;51.278;16.870;2024-03-29T08:42:06;99166.06;;;13.23;46.66
86320;BME280;76974;51.278;16.870;2024-03-29T08:44:33;99156.09;;;12.87;45.70
86320;BME280;76974;51.278;16.870;2024-03-29T08:46:59;99156.56;;;12.84;44.23
86320;BME280;76974;51.278;16.870;2024-03-29T08:49:29;99146.81;;;13.36;46.10
86320;BME280;76974;51.278;16.870;2024-03-29T08:51:56;99138.31;;;13.79;46.37
86320;BME280;76974;51.278;16.870;2024-03-29T08:54:24;99144.91;;;14.18;42.74
86320;BME280;76974;51.278;16.870;2024-03-29T08:56:50;99152.50;;;13.46;42.77
86320;BME280;76974;51.278;16.870;2024-03-29T08:59:15;99159.84;;;13.57;42.42
86320;BME280;76974;51.278;16.870;2024-03-29T09:01:43;99140.03;;;14.32;42.68
86320;BME280;76974;51.278;16.870;2024-03-29T09:04:10;99153.56;;;13.92;41.24
86320;BME280;76974;51.278;16.870;2024-03-29T09:06:39;99138.78;;;14.63;40.14
86320;BME280;76974;51.278;16.870;2024-03-29T09:09:05;99126.09;;;14.57;39.64
86320;BME280;76974;51.278;16.870;2024-03-29T09:11:31;99143.16;;;14.00;39.94
86320;BME280;76974;51.278;16.870;2024-03-29T09:13:58;99122.63;;;14.33;39.41
86320;BME280;76974;51.278;16.870;2024-03-29T09:16:27;99106.56;;;14.20;37.72
86320;BME280;76974;51.278;16.870;2024-03-29T09:18:55;99132.91;;;14.71;37.87
86320;BME280;76974;51.278;16.870;2024-03-29T09:21:21;99129.13;;;14.32;37.23
86320;BME280;76974;51.278;16.870;2024-03-29T09:23:47;99122.22;;;14.53;38.90
86320;BME280;76974;51.278;16.870;2024-03-29T09:26:15;99128.59;;;14.58;39.03
86320;BME280;76974;51.278;16.870;2024-03-29T09:28:41;99126.16;;;14.73;36.54
86320;BME280;76974;51.278;16.870;2024-03-29T09:31:06;99116.22;;;15.12;35.86
86320;BME280;76974;51.278;16.870;2024-03-29T09:33:32;99125.78;;;14.82;35.91
86320;BME280;76974;51.278;16.870;2024-03-29T09:35:59;99138.19;;;14.61;35.76
86320;BME280;76974;51.278;16.870;2024-03-29T09:38:26;99124.75;;;14.71;35.96
86320;BME280;76974;51.278;16.870;2024-03-29T09:41:16;99097.66;;;15.98;36.14
86320;BME280;76974;51.278;16.870;2024-03-29T09:43:43;99120.78;;;15.24;35.45
86320;BME280;76974;51.278;16.870;2024-03-29T09:46:16;99122.19;;;15.09;34.79
86320;BME280;76974;51.278;16.870;2024-03-29T09:48:44;99105.66;;;15.49;34.53
86320;BME280;76974;51.278;16.870;2024-03-29T09:51:13;99124.03;;;14.75;35.35
86320;BME280;76974;51.278;16.870;2024-03-29T09:53:43;99110.88;;;15.18;34.14
86320;BME280;76974;51.278;16.870;2024-03-29T09:56:10;99123.81;;;15.94;33.43
86320;BME280;76974;51.278;16.870;2024-03-29T09:58:37;99106.00;;;15.36;32.92
86320;BME280;76974;51.278;16.870;2024-03-29T10:01:07;99113.47;;;15.58;33.36
86320;BME280;76974;51.278;16.870;2024-03-29T10:03:41;99090.53;;;15.59;32.21
86320;BME280;76974;51.278;16.870;2024-03-29T10:06:09;99102.09;;;15.49;33.35
86320;BME280;76974;51.278;16.870;2024-03-29T10:08:37;99114.75;;;15.89;32.66
86320;BME280;76974;51.278;16.870;2024-03-29T10:11:03;99104.84;;;17.29;31.46
86320;BME280;76974;51.278;16.870;2024-03-29T10:13:29;99095.09;;;16.57;31.37
86320;BME280;76974;51.278;16.870;2024-03-29T10:15:55;99093.91;;;17.29;31.84
86320;BME280;76974;51.278;16.870;2024-03-29T10:18:27;99100.13;;;16.65;31.19
86320;BME280;76974;51.278;16.870;2024-03-29T10:21:00;99093.28;;;16.63;31.46
86320;BME280;76974;51.278;16.870;2024-03-29T10:23:27;99062.97;;;16.96;27.91
86320;BME280;76974;51.278;16.870;2024-03-29T10:25:53;99101.13;;;17.72;27.47
86320;BME280;76974;51.278;16.870;2024-03-29T10:28:19;99091.88;;;16.60;28.27
86320;BME280;76974;51.278;16.870;2024-03-29T10:30:45;99080.91;;;16.82;28.82
86320;BME280;76974;51.278;16.870;2024-03-29T10:33:15;99070.53;;;16.84;28.18
86320;BME280;76974;51.278;16.870;2024-03-29T10:35:42;99068.19;;;16.44;30.10
86320;BME280;76974;51.278;16.870;2024-03-29T10:38:10;99060.75;;;16.39;28.61
86320;BME280;76974;51.278;16.870;2024-03-29T10:40:38;99051.63;;;16.77;27.88
86320;BME280;76974;51.278;16.870;2024-03-29T10:43:11;99045.41;;;18.08;29.16
86320;BME280;76974;51.278;16.870;2024-03-29T10:45:42;99046.97;;;17.84;28.57
86320;BME280;76974;51.278;16.870;2024-03-29T10:48:10;99027.97;;;17.30;27.64
86320;BME280;76974;51.278;16.870;2024-03-29T10:50:37;99015.53;;;17.12;29.75
86320;BME280;76974;51.278;16.870;2024-03-29T10:53:05;99040.66;;;17.88;26.93
86320;BME280;76974;51.278;16.870;2024-03-29T10:55:33;99014.72;;;18.06;27.47
86320;BME280;76974;51.278;16.870;2024-03-29T10:58:04;99034.28;;;18.30;27.08
86320;BME280;76974;51.278;16.870;2024-03-29T11:00:33;99013.72;;;18.38;26.20
86320;BME280;76974;51.278;16.870;2024-03-29T11:03:20;99025.81;;;17.74;27.09
86320;BME280;76974;51.278;16.870;2024-03-29T11:05:49;99007.66;;;18.20;25.90
86320;BME280;76974;51.278;16.870;2024-03-29T11:08:24;99004.50;;;19.05;27.90
86320;BME280;76974;51.278;16.870;2024-03-29T11:10:56;98997.81;;;18.24;25.34
86320;BME280;76974;51.278;16.870;2024-03-29T11:13:40;99018.13;;;18.44;25.10
86320;BME280;76974;51.278;16.870;2024-03-29T11:16:11;99008.91;;;17.92;24.99
86320;BME280;76974;51.278;16.870;2024-03-29T11:18:37;98996.13;;;17.14;25.66
86320;BME280;76974;51.278;16.870;2024-03-29T11:21:05;99008.88;;;17.82;26.06
86320;BME280;76974;51.278;16.870;2024-03-29T11:23:36;98996.66;;;18.10;25.27
86320;BME280;76974;51.278;16.870;2024-03-29T11:26:04;98991.34;;;18.81;23.37
86320;BME280;76974;51.278;16.870;2024-03-29T11:28:33;98959.53;;;18.75;25.06
86320;BME280;76974;51.278;16.870;2024-03-29T11:31:08;98974.06;;;17.78;25.81
86320;BME280;76974;51.278;16.870;2024-03-29T11:33:34;98988.28;;;17.70;25.70
86320;BME280;76974;51.278;16.870;2024-03-29T11:38:45;99002.63;;;17.45;26.86
86320;BME280;76974;51.278;16.870;2024-03-29T11:41:13;99014.03;;;17.74;27.14
86320;BME280;76974;51.278;16.870;2024-03-29T11:43:41;99000.88;;;16.92;27.65
86320;BME280;76974;51.278;16.870;2024-03-29T11:46:10;99020.38;;;17.42;27.94
86320;BME280;76974;51.278;16.870;2024-03-29T11:48:37;99005.59;;;17.38;28.27
86320;BME280;76974;51.278;16.870;2024-03-29T11:51:13;99012.00;;;18.01;27.79
86320;BME280;76974;51.278;16.870;2024-03-29T11:53:43;98999.00;;;19.50;26.54
86320;BME280;76974;51.278;16.870;2024-03-29T11:56:10;99006.06;;;18.50;26.61
86320;BME280;76974;51.278;16.870;2024-03-29T11:58:39;99008.88;;;17.87;27.11
86320;BME280;76974;51.278;16.870;2024-03-29T12:01:05;99002.66;;;17.97;26.21
86320;BME280;76974;51.278;16.870;2024-03-29T12:03:31;99004.03;;;18.05;27.12
86320;BME280;76974;51.278;16.870;2024-03-29T12:06:00;98990.44;;;18.50;26.27
86320;BME280;76974;51.278;16.870;2024-03-29T12:08:35;98972.69;;;18.68;23.90
86320;BME280;76974;51.278;16.870;2024-03-29T12:11:02;98965.00;;;18.95;24.77
86320;BME280;76974;51.278;16.870;2024-03-29T12:13:29;98978.91;;;18.18;25.84
86320;BME280;76974;51.278;16.870;2024-03-29T12:15:55;98967.72;;;18.55;25.55
86320;BME280;76974;51.278;16.870;2024-03-29T12:18:22;98966.88;;;19.25;25.02
86320;BME280;76974;51.278;16.870;2024-03-29T12:20:49;98964.34;;;19.59;26.57
86320;BME280;76974;51.278;16.870;2024-03-29T12:23:29;98960.88;;;19.13;24.86
86320;BME280;76974;51.278;16.870;2024-03-29T12:25:58;98959.19;;;19.27;25.23
86320;BME280;76974;51.278;16.870;2024-03-29T12:28:25;98957.34;;;18.92;25.45
86320;BME280;76974;51.278;16.870;2024-03-29T12:30:51;98961.72;;;18.63;26.40
86320;BME280;76974;51.278;16.870;2024-03-29T12:33:19;98936.50;;;18.76;26.47
86320;BME280;76974;51.278;16.870;2024-03-29T12:35:46;98928.50;;;18.39;26.86
86320;BME280;76974;51.278;16.870;2024-03-29T12:38:17;98946.53;;;18.20;26.54
86320;BME280;76974;51.278;16.870;2024-03-29T12:40:45;98949.47;;;17.83;26.69
86320;BME280;76974;51.278;16.870;2024-03-29T12:43:13;98955.19;;;17.76;28.50
86320;BME280;76974;51.278;16.870;2024-03-29T12:45:41;98952.31;;;18.28;29.48
86320;BME280;76974;51.278;16.870;2024-03-29T12:48:15;98952.13;;;17.73;27.72
86320;BME280;76974;51.278;16.870;2024-03-29T12:50:43;98938.88;;;18.17;27.49
86320;BME280;76974;51.278;16.870;2024-03-29T12:53:11;98959.97;;;18.16;27.91
86320;BME280;76974;51.278;16.870;2024-03-29T12:55:42;98956.22;;;17.65;27.94
86320;BME280;76974;51.278;16.870;2024-03-29T12:58:12;98956.50;;;17.64;28.00
86320;BME280;76974;51.278;16.870;2024-03-29T13:00:39;98941.25;;;17.83;28.23
86320;BME280;76974;51.278;16.870;2024-03-29T13:03:05;98961.13;;;18.46;27.74
86320;BME280;76974;51.278;16.870;2024-03-29T13:05:31;98949.59;;;18.49;28.80
86320;BME280;76974;51.278;16.870;2024-03-29T13:08:08;98949.09;;;18.82;27.92
86320;BME280;76974;51.278;16.870;2024-03-29T13:10:36;98941.97;;;19.07;27.39
86320;BME280;76974;51.278;16.870;2024-03-29T13:13:02;98949.59;;;18.44;26.31
86320;BME280;76974;51.278;16.870;2024-03-29T13:15:28;98941.13;;;18.45;26.19
86320;BME280;76974;51.278;16.870;2024-03-29T13:17:55;98928.78;;;18.48;26.51
86320;BME280;76974;51.278;16.870;2024-03-29T13:20:22;98928.44;;;19.30;30.19
86320;BME280;76974;51.278;16.870;2024-03-29T13:22:49;98933.13;;;18.34;26.92
86320;BME280;76974;51.278;16.870;2024-03-29T13:25:18;98932.34;;;18.53;27.43
86320;BME280;76974;51.278;16.870;2024-03-29T13:27:46;98933.13;;;18.34;26.45
86320;BME280;76974;51.278;16.870;2024-03-29T13:30:13;98937.31;;;18.87;27.52
86320;BME280;76974;51.278;16.870;2024-03-29T13:32:43;98938.97;;;18.63;27.75
86320;BME280;76974;51.278;16.870;2024-03-29T13:35:14;98933.16;;;18.54;27.49
86320;BME280;76974;51.278;16.870;2024-03-29T13:37:45;98940.88;;;18.62;29.09
86320;BME280;76974;51.278;16.870;2024-03-29T13:40:21;98932.91;;;18.96;27.23
86320;BME280;76974;51.278;16.870;2024-03-29T13:42:47;98938.91;;;18.52;26.23
86320;BME280;76974;51.278;16.870;2024-03-29T13:45:14;98936.47;;;18.81;27.19
86320;BME280;76974;51.278;16.870;2024-03-29T13:47:42;98928.50;;;18.95;27.51
86320;BME280;76974;51.278;16.870;2024-03-29T13:50:09;98907.31;;;19.31;26.63
86320;BME280;76974;51.278;16.870;2024-03-29T13:52:36;98920.97;;;19.56;26.82
86320;BME280;76974;51.278;16.870;2024-03-29T13:55:04;98901.38;;;18.83;25.79
86320;BME280;76974;51.278;16.870;2024-03-29T13:57:30;98904.94;;;18.94;26.74
86320;BME280;76974;51.278;16.870;2024-03-29T13:59:57;98919.13;;;19.26;26.78
86320;BME280;76974;51.278;16.870;2024-03-29T14:02:24;98906.81;;;19.19;27.74
86320;BME280;76974;51.278;16.870;2024-03-29T14:04:53;98928.81;;;18.73;29.06
86320;BME280;76974;51.278;16.870;2024-03-29T14:07:19;98918.94;;;18.72;30.00
86320;BME280;76974;51.278;16.870;2024-03-29T14:09:45;98892.31;;;18.37;29.29
86320;BME280;76974;51.278;16.870;2024-03-29T14:12:11;98907.97;;;18.87;30.77
86320;BME280;76974;51.278;16.870;2024-03-29T14:14:39;98903.28;;;18.57;30.16
86320;BME280;76974;51.278;16.870;2024-03-29T14:17:06;98906.03;;;18.93;29.50
86320;BME280;76974;51.278;16.870;2024-03-29T14:19:39;98906.84;;;18.83;28.80
86320;BME280;76974;51.278;16.870;2024-03-29T14:22:05;98863.53;;;18.50;30.39
86320;BME280;76974;51.278;16.870;2024-03-29T14:24:32;98904.91;;;19.04;30.54
86320;BME280;76974;51.278;16.870;2024-03-29T14:27:02;98891.50;;;18.57;30.28
86320;BME280;76974;51.278;16.870;2024-03-29T14:29:31;98893.41;;;18.56;30.73
86320;BME280;76974;51.278;16.870;2024-03-29T14:31:57;98878.06;;;18.50;31.20
86320;BME280;76974;51.278;16.870;2024-03-29T14:34:23;98882.44;;;18.87;31.08
86320;BME280;76974;51.278;16.870;2024-03-29T14:36:50;98890.91;;;19.06;29.95
86320;BME280;76974;51.278;16.870;2024-03-29T14:39:16;98882.16;;;18.53;30.84
86320;BME280;76974;51.278;16.870;2024-03-29T14:41:43;98892.84;;;18.95;31.63
86320;BME280;76974;51.278;16.870;2024-03-29T14:44:12;98892.81;;;19.20;30.87
86320;BME280;76974;51.278;16.870;2024-03-29T14:46:38;98883.00;;;18.69;30.69
86320;BME280;76974;51.278;16.870;2024-03-29T14:49:06;98892.31;;;18.37;31.50
86320;BME280;76974;51.278;16.870;2024-03-29T14:51:36;98895.00;;;19.13;32.38
86320;BME280;76974;51.278;16.870;2024-03-29T14:54:02;98883.00;;;18.94;31.40
86320;BME280;76974;51.278;16.870;2024-03-29T14:56:30;98895.31;;;19.07;30.76
86320;BME280;76974;51.278;16.870;2024-03-29T14:59:03;98906.81;;;18.22;31.61
86320;BME280;76974;51.278;16.870;2024-03-29T15:01:35;98891.47;;;18.26;32.17
86320;BME280;76974;51.278;16.870;2024-03-29T15:04:02;98882.66;;;17.94;32.00
86320;BME280;76974;51.278;16.870;2024-03-29T15:06:28;98876.03;;;17.75;32.71
86320;BME280;76974;51.278;16.870;2024-03-29T15:08:55;98863.53;;;18.24;31.57
86320;BME280;76974;51.278;16.870;2024-03-29T15:11:24;98867.09;;;18.50;31.28
86320;BME280;76974;51.278;16.870;2024-03-29T15:13:52;98846.25;;;18.34;31.03
86320;BME280;76974;51.278;16.870;2024-03-29T15:16:19;98860.50;;;18.26;33.83
86320;BME280;76974;51.278;16.870;2024-03-29T15:18:47;98867.91;;;18.15;32.78
86320;BME280;76974;51.278;16.870;2024-03-29T15:21:13;98857.06;;;17.58;32.30
86320;BME280;76974;51.278;16.870;2024-03-29T15:23:40;98880.88;;;17.57;34.18
86320;BME280;76974;51.278;16.870;2024-03-29T15:26:06;98883.84;;;17.41;34.80
86320;BME280;76974;51.278;16.870;2024-03-29T15:28:33;98883.59;;;17.47;33.30
86320;BME280;76974;51.278;16.870;2024-03-29T15:31:20;98870.97;;;17.46;33.83
86320;BME280;76974;51.278;16.870;2024-03-29T15:33:48;98859.19;;;17.36;33.42
86320;BME280;76974;51.278;16.870;2024-03-29T15:36:16;98865.97;;;17.28;33.92
86320;BME280;76974;51.278;16.870;2024-03-29T15:38:42;98873.06;;;17.19;34.36
86320;BME280;76974;51.278;16.870;2024-03-29T15:41:08;98868.69;;;17.18;33.73
86320;BME280;76974;51.278;16.870;2024-03-29T15:43:34;98848.41;;;17.09;33.53
86320;BME280;76974;51.278;16.870;2024-03-29T15:46:04;98873.91;;;17.30;33.37
86320;BME280;76974;51.278;16.870;2024-03-29T15:48:31;98872.53;;;17.27;33.67
86320;BME280;76974;51.278;16.870;2024-03-29T15:50:57;98882.72;;;17.37;33.05
86320;BME280;76974;51.278;16.870;2024-03-29T15:53:23;98879.69;;;17.33;33.94
86320;BME280;76974;51.278;16.870;2024-03-29T15:55:49;98877.44;;;17.20;33.89
86320;BME280;76974;51.278;16.870;2024-03-29T15:58:16;98877.97;;;17.17;33.73
86320;BME280;76974;51.278;16.870;2024-03-29T16:00:42;98872.38;;;16.92;35.23